My Meet Scores
Akira Pierce, United Gymnastics Academy - MyMeetScores.com
Top100 | Top Teams | Upcoming Meets | Completed Meets | Latest | Add Scores | Help| Support | Bookmark and Share

Akira Pierce, United Gymnastics Academy
Personal Bests
LevelVault BarsBeamFloorAA
49.4009.625 9.5259.22537.350
58.6259.275 8.8508.92535.375
68.8008.200 8.4758.30032.975
Meet Scores
Date Meet Team Session Level Division Vault Bars Beam Floor AA
2012-03-09 LGA Lucky Invite United Gymnastics Academy A3 6 Lvl 6: 10 8.400 12 8.100 11 8.350 11 8.125 11 32.975 13
2012-02-25 Midwest Open 2012 United Gymnastics Academy 5B 6 Lvl 6: 8 to 10 8.250 38 7.950 35 8.475 32 8.150 33 32.825 34
2012-02-17 13th Annual GymQuarters Invitational United Gymnastics Academy 9 6 Junior B 8.800 9T 8.200 10 7.000 15 8.000 14 32.000 15
2012-01-28 2012 UGA Cowgirl Classic United Gymnastics Academy 5B 6 Lvl 6:10 & under 8.250 22 7.850 25 8.300 21 8.300 24 32.700 22
2012-01-18 Bravo Classic United Gymnastics Academy 1B 6 10-11 8.750 19 7.175 30 8.050 28 8.200 20 32.175 30
2012-01-06 2012 St. Jude Invite United Gymnastics Academy 5A 6 Junior 8.350 16 0.000 18 8.450 8 7.950 13 24.750 18
2011-12-09 St. Nick Invite United Gymnastics Academy 8B 6 Jr.B 8.400 12 0.000 13 8.000 10 7.300 11 23.700 13
2011-04-01 2011 Illinois Level 5 State Meet Flipstar Gymnastics Academy 1 5 Youth.D 8.550 24 9.100 9 8.800 18 8.925 20 35.375 19
2011-03-04 Elgin Invite Flipstar Gymnastics Academy 10 5 9 8.100 18 8.800 8 8.525 19 8.825 15 34.250 19
2011-02-19 Big Dream Classic Gym Kinetics Gymnastics 4B 5 9 yrs 8.625 21 9.275 8 8.700 16 8.150 20 34.750 18
2011-02-11 IGI Chicago Style Gymnastics Meet Gym Kinetics Gymnastics 613 5 9 & Under 8.200 40 8.175 32 8.850 21T 8.550 38T 33.775 35
2011-01-21 Bravo Classic Flipstar Gymnastics Academy 9B 5 9 8.050 19 9.225 5 8.500 21 8.600 20 34.375 20
2011-01-08 Crossroads Classic Gym Kinetics Gymnastics 1B 5 Jr A 8.200 6 8.700 4 8.700 8 8.725 4 34.325 5
2010-12-03 Make a Wish Gym Kinetics Gymnastics 9 5 9 8.350 19T 8.750 11 8.775 19T 8.500 19T 34.375 18
2010-03-26 2010 Illinois Level 4 State Championships Gym Kinetics Gymnastics 4 Youth.F 9.400 10 9.625 2 9.250 5 8.850 21 37.125 8
2010-02-20 BIG Dream Classic 2010 Flipstar Gymnastics Academy 2B 4 8 9.200 10 9.400 4 9.525 2 9.225 7 37.350 3
2010-02-12 IGI Chicago Style Gymnastics Meet Flipstar Gymnastics Academy 231 4 8 9.000 22T 8.900 12T 9.075 13 9.000 13T 35.975 14
2010-01-29 Wisconsin Dells Gymnastics Vacation Classic Flipstar Gymnastics Academy 4C,4D 4 8 8.800 18T 8.850 8T 8.100 17T 8.775 14 34.525 17
2009-12-04 Ultimate Wish Classic Flipstar Gymnastics Academy 5 4 Ch6-8 9.000 11T 9.500 2 9.275 2 8.900 8 36.675 2
2009-11-13 2009 North Judges Cup Gym Kinetics Sports Complex 4B 4 8 8.825 11 8.900 7 8.400 8 8.450 10 34.575 7
2009-03-13 2009 Illinois Level 4 State Championships Gym-Kinetics 4 ChildB 8.775 22 8.800 13 7.750 22 8.250 23 33.575 23
2009-03-07 Midwest Open 2009 Gym Kinetics Sports Complex 2A 4 6-7 8.650 23 8.825 14 8.650 20 8.725 22 34.850 22
2009-02-06 IGI Chicago Style Gymnastics Meet Gym Kinetics Gymnastics 121 4 8 and Under 8.450 31T 8.750 21 8.050 25 8.025 38T 33.275 27
2009-01-23 2009 Bravo Classic Gym Kinetics Gymnastics 8B 4 6-7yrs 8.400 29 8.500 21 7.850 26 8.450 25 33.200 27
2008-12-13 St Nick Invite Gym Kinetics Sports Complex 5 4 All 8.250 80 8.400 48 7.500 81 7.900 83 32.050 79
2008-11-22 Thanksgiving Classic Gym Kinetics Gymnastics 6 4 Ch 6-7 8.400 21 8.150 14 8.100 13T 7.500 22 32.150 20

www.lazysuits.com